Time;durP1;ratioP1;P1;durP2;ratioP2;P2;SDS_P1;SDS_P2;PMS_P1;PMS_P2;Temp;Humidity;BMP_temperature;BMP_pressure;BME280_temperature;BME280_humidity;BME280_pressure;Samples;Min_cycle;Max_cycle;Signal;HPM_P1;HPM_P2
2023/08/18 00:00:06;;;;;;;2.30;2.20;;;;;;;;;;4974501;28;20678;-86
2023/08/18 00:02:33;;;;;;;1.70;1.63;;;;;;;;;;4975405;28;20254;-85
2023/08/18 00:05:02;;;;;;;1.63;1.63;;;;;;;;;;4973819;28;20210;-85
2023/08/18 00:07:31;;;;;;;2.03;1.92;;;;;;;;;;4974178;28;20206;-85
2023/08/18 00:10:04;;;;;;;1.92;1.83;;;;;;;;;;4973262;28;20627;-85
2023/08/18 00:12:38;;;;;;;2.15;1.95;;;;;;;;;;4972479;28;20291;-85
2023/08/18 00:15:06;;;;;;;2.63;2.00;;;;;;;;;;4973829;28;20206;-86
2023/08/18 00:17:36;;;;;;;1.60;1.60;;;;;;;;;;4974631;28;20542;-85
2023/08/18 00:20:08;;;;;;;3.33;1.85;;;;;;;;;;4972707;28;20194;-85
2023/08/18 00:22:39;;;;;;;2.65;1.63;;;;;;;;;;4973280;28;20260;-86
2023/08/18 00:25:11;;;;;;;1.52;1.40;;;;;;;;;;4973269;28;20208;-84
2023/08/18 00:27:42;;;;;;;2.17;2.08;;;;;;;;;;4975238;28;20203;-86
2023/08/18 00:30:11;;;;;;;2.08;1.98;;;;;;;;;;4972741;28;20199;-86
2023/08/18 00:32:40;;;;;;;2.00;1.90;;;;;;;;;;4974717;28;20680;-85
2023/08/18 00:35:08;;;;;;;1.80;1.70;;;;;;;;;;4959005;28;20237;-85
2023/08/18 00:37:39;;;;;;;1.88;1.77;;;;;;;;;;4954966;29;20203;-83
2023/08/18 00:40:12;;;;;;;2.08;1.98;;;;;;;;;;4953912;29;20281;-87
2023/08/18 00:42:48;;;;;;;1.52;1.50;;;;;;;;;;4952159;28;20637;-87
2023/08/18 00:45:17;;;;;;;1.60;1.60;;;;;;;;;;4954620;29;20210;-85
2023/08/18 00:47:46;;;;;;;2.00;1.90;;;;;;;;;;4954767;29;20591;-84
2023/08/18 00:50:18;;;;;;;2.00;1.90;;;;;;;;;;4953224;29;20300;-85
2023/08/18 00:52:51;;;;;;;1.77;1.67;;;;;;;;;;4954472;29;20207;-85
2023/08/18 00:55:22;;;;;;;1.85;1.75;;;;;;;;;;4955174;29;20522;-86
2023/08/18 00:57:51;;;;;;;1.92;1.67;;;;;;;;;;4953923;29;20209;-87
2023/08/18 01:00:23;;;;;;;3.75;1.88;;;;;;;;;;4954937;29;20210;-85
2023/08/18 01:02:54;;;;;;;2.17;2.08;;;;;;;;;;4954488;29;20600;-86
2023/08/18 01:05:22;;;;;;;2.13;1.67;;;;;;;;;;4953645;28;20238;-85
2023/08/18 01:07:52;;;;;;;2.05;1.95;;;;;;;;;;4954647;29;20207;-85
2023/08/18 01:10:22;;;;;;;1.85;1.73;;;;;;;;;;4953946;29;20715;-85
2023/08/18 01:13:00;;;;;;;1.85;1.73;;;;;;;;;;4954097;28;20290;-86
2023/08/18 01:15:29;;;;;;;1.40;1.40;;;;;;;;;;4964455;28;20229;-86
2023/08/18 01:18:00;;;;;;;1.88;1.30;;;;;;;;;;4968557;28;20217;-84
2023/08/18 01:20:30;;;;;;;1.80;1.70;;;;;;;;;;4964609;28;20293;-86
2023/08/18 01:23:01;;;;;;;1.75;1.65;;;;;;;;;;4968774;28;20597;-87
2023/08/18 01:25:33;;;;;;;3.38;2.53;;;;;;;;;;4982309;28;20229;-85
2023/08/18 01:28:06;;;;;;;1.75;1.70;;;;;;;;;;4966825;28;20214;-85
2023/08/18 01:30:36;;;;;;;2.10;2.00;;;;;;;;;;4970131;28;20221;-85
2023/08/18 01:33:08;;;;;;;2.10;2.00;;;;;;;;;;4976379;28;20194;-86
2023/08/18 01:35:38;;;;;;;2.30;2.13;;;;;;;;;;4971416;29;20195;-85
2023/08/18 01:38:15;;;;;;;2.20;2.10;;;;;;;;;;4953627;29;20262;-86
2023/08/18 01:40:45;;;;;;;2.20;2.10;;;;;;;;;;4953014;28;20422;-85
2023/08/18 01:43:15;;;;;;;1.83;1.73;;;;;;;;;;4953969;29;20221;-87
2023/08/18 01:45:44;;;;;;;2.25;2.05;;;;;;;;;;4952458;29;20207;-85
2023/08/18 01:48:13;;;;;;;2.63;2.47;;;;;;;;;;4954051;29;20265;-85
2023/08/18 01:50:44;;;;;;;3.65;2.25;;;;;;;;;;4953459;29;20203;-85
2023/08/18 01:53:15;;;;;;;1.90;1.90;;;;;;;;;;4951939;29;20592;-85
2023/08/18 01:55:44;;;;;;;8.02;2.10;;;;;;;;;;4952347;29;20574;-85
2023/08/18 01:58:13;;;;;;;3.00;2.80;;;;;;;;;;4953836;29;20692;-84
2023/08/18 02:00:43;;;;;;;5.85;2.63;;;;;;;;;;4952903;29;20199;-84
2023/08/18 02:03:11;;;;;;;2.20;2.10;;;;;;;;;;4952257;29;20293;-85
2023/08/18 02:05:43;;;;;;;2.20;2.10;;;;;;;;;;4952238;29;20195;-84
2023/08/18 02:08:28;;;;;;;2.25;2.13;;;;;;;;;;4952277;29;20195;-85
2023/08/18 02:11:03;;;;;;;2.00;1.90;;;;;;;;;;4951301;29;20254;-84
2023/08/18 02:13:31;;;;;;;2.60;2.40;;;;;;;;;;4951879;29;20192;-86
2023/08/18 02:16:01;;;;;;;2.45;2.25;;;;;;;;;;4953100;29;20206;-83
2023/08/18 02:18:30;;;;;;;2.42;2.22;;;;;;;;;;4952410;29;20210;-85
2023/08/18 02:20:59;;;;;;;2.38;2.28;;;;;;;;;;4952409;29;20641;-85
2023/08/18 02:23:28;;;;;;;2.58;2.47;;;;;;;;;;4952962;29;20195;-85
2023/08/18 02:25:59;;;;;;;2.40;2.25;;;;;;;;;;4951450;29;20225;-85
2023/08/18 02:28:28;;;;;;;2.05;1.95;;;;;;;;;;4952137;29;20607;-84
2023/08/18 02:31:03;;;;;;;2.45;2.35;;;;;;;;;;4952112;29;20609;-84
2023/08/18 02:33:32;;;;;;;3.15;2.95;;;;;;;;;;4950468;29;20206;-85
2023/08/18 02:36:01;;;;;;;3.25;2.53;;;;;;;;;;4951956;29;20656;-84
2023/08/18 02:38:31;;;;;;;2.08;1.95;;;;;;;;;;4961793;29;20451;-84
2023/08/18 02:40:59;;;;;;;2.40;2.30;;;;;;;;;;4966556;29;20210;-84
2023/08/18 02:43:30;;;;;;;2.80;2.70;;;;;;;;;;4951421;29;20589;-85
2023/08/18 02:45:59;;;;;;;3.67;3.38;;;;;;;;;;4950441;29;20203;-83
2023/08/18 02:48:29;;;;;;;4.22;3.75;;;;;;;;;;4949588;29;20202;-85
2023/08/18 02:51:02;;;;;;;7.88;3.95;;;;;;;;;;4951623;29;20285;-85
2023/08/18 02:53:34;;;;;;;2.80;2.60;;;;;;;;;;4950453;29;20230;-84
2023/08/18 02:56:06;;;;;;;3.95;3.65;;;;;;;;;;4949671;29;20591;-84
2023/08/18 02:58:36;;;;;;;7.43;3.08;;;;;;;;;;4950628;29;20194;-87
2023/08/18 03:01:05;;;;;;;2.65;2.55;;;;;;;;;;4950776;29;20225;-84
2023/08/18 03:03:33;;;;;;;3.13;2.47;;;;;;;;;;4950302;29;20291;-86
2023/08/18 03:06:02;;;;;;;4.00;2.65;;;;;;;;;;4950581;29;20214;-85
2023/08/18 03:08:32;;;;;;;2.15;2.05;;;;;;;;;;4950626;29;20207;-86
2023/08/18 03:11:01;;;;;;;2.20;2.10;;;;;;;;;;4949720;29;20238;-84
2023/08/18 03:13:29;;;;;;;2.47;2.28;;;;;;;;;;4950026;29;20275;-85
2023/08/18 03:16:00;;;;;;;2.70;2.50;;;;;;;;;;4949885;29;20222;-85
2023/08/18 03:18:28;;;;;;;2.63;2.42;;;;;;;;;;4949256;29;20544;-85
2023/08/18 03:20:58;;;;;;;2.72;2.63;;;;;;;;;;4949790;29;20305;-85
2023/08/18 03:23:28;;;;;;;2.60;2.40;;;;;;;;;;4950822;29;20207;-86
2023/08/18 03:25:59;;;;;;;2.40;2.30;;;;;;;;;;4949449;29;20221;-84
2023/08/18 03:28:31;;;;;;;4.28;2.95;;;;;;;;;;4950256;29;20230;-85
2023/08/18 03:31:04;;;;;;;2.85;2.70;;;;;;;;;;4950928;29;20207;-86
2023/08/18 03:33:33;;;;;;;3.10;2.85;;;;;;;;;;4950191;29;20213;-85
2023/08/18 03:36:05;;;;;;;4.05;3.75;;;;;;;;;;4950218;29;20203;-84
2023/08/18 03:38:33;;;;;;;2.97;2.78;;;;;;;;;;4949775;29;20214;-86
2023/08/18 03:41:04;;;;;;;3.42;3.15;;;;;;;;;;4949669;29;20203;-85
2023/08/18 03:43:32;;;;;;;3.15;2.90;;;;;;;;;;4950594;29;20676;-84
2023/08/18 03:46:01;;;;;;;3.03;2.83;;;;;;;;;;4949718;29;20695;-85
2023/08/18 03:48:33;;;;;;;2.90;2.58;;;;;;;;;;4949551;29;20241;-84
2023/08/18 03:51:02;;;;;;;3.75;2.83;;;;;;;;;;4950018;29;20612;-85
2023/08/18 03:53:32;;;;;;;3.60;3.30;;;;;;;;;;4949723;29;20339;-84
2023/08/18 03:56:02;;;;;;;3.05;2.88;;;;;;;;;;4949549;29;20233;-85
2023/08/18 03:58:31;;;;;;;2.95;2.45;;;;;;;;;;4949890;29;20215;-87
2023/08/18 04:01:04;;;;;;;3.45;2.90;;;;;;;;;;4949824;29;20265;-84
2023/08/18 04:03:37;;;;;;;3.15;2.95;;;;;;;;;;4950171;28;20203;-84
2023/08/18 04:06:12;;;;;;;2.63;2.53;;;;;;;;;;4953524;29;20271;-85
2023/08/18 04:08:41;;;;;;;6.15;2.75;;;;;;;;;;4952862;29;20258;-84
2023/08/18 04:11:10;;;;;;;3.53;2.95;;;;;;;;;;4953112;29;20254;-84
2023/08/18 04:13:40;;;;;;;9.05;2.67;;;;;;;;;;4953776;29;20732;-86
2023/08/18 04:16:13;;;;;;;2.83;2.72;;;;;;;;;;4952699;29;20203;-85
2023/08/18 04:18:43;;;;;;;3.05;2.85;;;;;;;;;;4953479;29;20261;-84
2023/08/18 04:21:13;;;;;;;3.47;3.17;;;;;;;;;;4953876;29;20211;-84
2023/08/18 04:23:42;;;;;;;4.10;3.20;;;;;;;;;;4952461;29;20261;-85
2023/08/18 04:26:12;;;;;;;2.75;2.65;;;;;;;;;;4953194;29;20653;-85
2023/08/18 04:28:40;;;;;;;2.50;2.40;;;;;;;;;;4953673;29;20234;-85
2023/08/18 04:31:11;;;;;;;2.63;2.53;;;;;;;;;;4952611;29;20267;-86
2023/08/18 04:33:39;;;;;;;2.70;2.50;;;;;;;;;;4955502;29;20696;-85
2023/08/18 04:36:13;;;;;;;5.40;2.35;;;;;;;;;;4953484;29;20203;-85
2023/08/18 04:38:42;;;;;;;3.55;2.55;;;;;;;;;;4952311;29;20194;-84
2023/08/18 04:41:10;;;;;;;2.10;2.00;;;;;;;;;;4953276;29;20253;-85
2023/08/18 04:43:39;;;;;;;3.03;2.70;;;;;;;;;;4952953;29;20213;-84
2023/08/18 04:46:07;;;;;;;4.30;2.13;;;;;;;;;;4951316;29;20681;-84
2023/08/18 04:48:37;;;;;;;2.40;2.30;;;;;;;;;;4952449;29;20241;-84
2023/08/18 04:51:05;;;;;;;3.00;2.47;;;;;;;;;;4952570;29;20434;-87
2023/08/18 04:53:36;;;;;;;8.32;2.50;;;;;;;;;;4952145;29;20199;-85
2023/08/18 04:56:05;;;;;;;4.95;2.50;;;;;;;;;;4953543;29;20290;-85
2023/08/18 04:58:33;;;;;;;2.65;2.55;;;;;;;;;;4952980;29;20210;-86
2023/08/18 05:01:03;;;;;;;2.95;2.63;;;;;;;;;;4953850;29;20285;-85
2023/08/18 05:03:34;;;;;;;2.38;2.33;;;;;;;;;;4954161;29;20206;-84
2023/08/18 05:06:04;;;;;;;2.53;2.42;;;;;;;;;;4952941;29;20542;-85
2023/08/18 05:08:34;;;;;;;4.30;2.60;;;;;;;;;;4953682;29;20742;-84
2023/08/18 05:11:06;;;;;;;3.50;2.53;;;;;;;;;;4954053;29;20245;-86
2023/08/18 05:13:34;;;;;;;2.80;2.60;;;;;;;;;;4954734;29;20203;-85
2023/08/18 05:16:04;;;;;;;3.00;2.90;;;;;;;;;;4971301;28;20213;-84
2023/08/18 05:18:35;;;;;;;2.70;2.60;;;;;;;;;;4975977;28;20206;-86
2023/08/18 05:21:02;;;;;;;2.45;2.28;;;;;;;;;;4961670;28;21105;-83
2023/08/18 05:23:32;;;;;;;2.72;2.53;;;;;;;;;;4980900;28;20193;-85
2023/08/18 05:25:59;;;;;;;3.17;2.92;;;;;;;;;;4989407;28;20290;-84
2023/08/18 05:28:33;;;;;;;5.38;2.88;;;;;;;;;;4966006;28;20309;-84
2023/08/18 05:31:05;;;;;;;5.03;2.30;;;;;;;;;;4964682;28;20217;-87
2023/08/18 05:33:35;;;;;;;4.20;2.60;;;;;;;;;;4955609;29;20194;-84
2023/08/18 05:36:08;;;;;;;2.67;2.58;;;;;;;;;;4968309;28;20217;-86
2023/08/18 05:38:41;;;;;;;2.92;2.72;;;;;;;;;;4963266;28;20714;-87
2023/08/18 05:41:10;;;;;;;2.72;2.63;;;;;;;;;;4958078;28;20580;-84
2023/08/18 05:43:40;;;;;;;2.95;2.70;;;;;;;;;;4966834;28;20201;-86
2023/08/18 05:46:15;;;;;;;6.35;2.90;;;;;;;;;;4963306;28;20699;-85
2023/08/18 05:48:46;;;;;;;2.90;2.70;;;;;;;;;;4965177;28;20303;-86
2023/08/18 05:51:15;;;;;;;8.68;3.00;;;;;;;;;;4962230;28;20202;-87
2023/08/18 05:53:44;;;;;;;3.13;2.85;;;;;;;;;;4963635;28;20197;-83
2023/08/18 05:56:12;;;;;;;2.60;2.50;;;;;;;;;;4974008;28;20211;-86
2023/08/18 05:58:43;;;;;;;2.65;2.55;;;;;;;;;;4972634;28;20228;-84
2023/08/18 06:01:14;;;;;;;2.95;2.75;;;;;;;;;;4966742;28;20447;-85
2023/08/18 06:03:43;;;;;;;2.72;2.63;;;;;;;;;;4973895;28;20283;-85
2023/08/18 06:06:10;;;;;;;2.45;2.25;;;;;;;;;;4979022;28;20197;-85
2023/08/18 06:08:40;;;;;;;2.40;2.30;;;;;;;;;;4967069;28;20241;-85
2023/08/18 06:11:15;;;;;;;4.05;2.70;;;;;;;;;;4959963;28;20210;-85
2023/08/18 06:13:46;;;;;;;2.63;2.47;;;;;;;;;;4968417;29;20683;-85
2023/08/18 06:16:16;;;;;;;2.80;2.50;;;;;;;;;;4956403;29;20274;-86
2023/08/18 06:18:46;;;;;;;2.90;2.80;;;;;;;;;;4957869;29;20293;-85
2023/08/18 06:21:13;;;;;;;9.68;2.30;;;;;;;;;;4956655;28;20230;-84
2023/08/18 06:23:43;;;;;;;10.23;2.78;;;;;;;;;;4954627;28;20270;-83
2023/08/18 06:26:13;;;;;;;2.70;2.60;;;;;;;;;;4955132;29;20225;-84
2023/08/18 06:28:43;;;;;;;2.67;2.47;;;;;;;;;;4947983;29;20223;-85
2023/08/18 06:31:23;;;;;;;3.13;2.97;;;;;;;;;;4953659;28;20240;-86
2023/08/18 06:33:51;;;;;;;2.30;2.20;;;;;;;;;;4947745;28;20213;-84
2023/08/18 06:36:21;;;;;;;2.35;2.25;;;;;;;;;;4954773;29;20202;-85
2023/08/18 06:38:50;;;;;;;2.25;2.15;;;;;;;;;;4954387;29;20687;-86
2023/08/18 06:41:18;;;;;;;2.88;2.78;;;;;;;;;;4940428;29;20237;-86
2023/08/18 06:43:48;;;;;;;2.30;2.20;;;;;;;;;;4936411;29;20235;-86
2023/08/18 06:46:18;;;;;;;2.80;2.58;;;;;;;;;;5055153;23;20276;-86
2023/08/18 06:48:47;;;;;;;2.63;2.40;;;;;;;;;;4993699;28;20255;-85
2023/08/18 06:51:17;;;;;;;10.25;2.33;;;;;;;;;;4995591;28;20215;-85
2023/08/18 06:53:49;;;;;;;2.58;2.47;;;;;;;;;;4993843;28;20728;-85
2023/08/18 06:56:17;;;;;;;2.60;2.50;;;;;;;;;;5069692;23;20197;-87
2023/08/18 06:58:48;;;;;;;3.15;2.63;;;;;;;;;;4973515;28;20266;-84
2023/08/18 07:01:17;;;;;;;2.33;2.22;;;;;;;;;;4975233;28;20190;-85
2023/08/18 07:03:48;;;;;;;2.47;2.38;;;;;;;;;;4971464;28;20419;-85
2023/08/18 07:06:16;;;;;;;2.63;2.53;;;;;;;;;;4965880;28;20289;-85
2023/08/18 07:08:43;;;;;;;3.03;2.63;;;;;;;;;;4970174;28;20233;-85
2023/08/18 07:11:15;;;;;;;3.17;2.45;;;;;;;;;;4977825;28;20278;-85
2023/08/18 07:13:49;;;;;;;3.95;2.25;;;;;;;;;;4965466;28;20198;-86
2023/08/18 07:16:25;;;;;;;2.15;2.05;;;;;;;;;;4966026;28;20197;-85
2023/08/18 07:18:55;;;;;;;2.25;2.15;;;;;;;;;;4971569;28;20317;-85
2023/08/18 07:21:22;;;;;;;2.67;2.58;;;;;;;;;;4959453;28;20209;-85
2023/08/18 07:23:55;;;;;;;2.90;2.70;;;;;;;;;;4958277;28;20583;-84
2023/08/18 07:26:23;;;;;;;2.13;2.08;;;;;;;;;;4971026;28;20764;-85
2023/08/18 07:28:52;;;;;;;2.78;2.10;;;;;;;;;;4962940;28;20238;-85
2023/08/18 07:31:24;;;;;;;2.97;2.22;;;;;;;;;;4958877;28;20214;-86
2023/08/18 07:33:55;;;;;;;2.10;2.00;;;;;;;;;;4967985;28;20191;-86
2023/08/18 07:36:24;;;;;;;1.80;1.80;;;;;;;;;;4956591;29;20199;-86
2023/08/18 07:38:53;;;;;;;2.25;2.15;;;;;;;;;;4959065;28;20214;-87
2023/08/18 07:41:21;;;;;;;1.92;1.83;;;;;;;;;;4959522;29;20199;-85
2023/08/18 07:43:56;;;;;;;2.40;2.30;;;;;;;;;;4958639;29;20214;-86
2023/08/18 07:46:30;;;;;;;2.22;2.13;;;;;;;;;;4957661;29;20206;-86
2023/08/18 07:49:00;;;;;;;1.70;1.70;;;;;;;;;;4957421;29;20423;-85
2023/08/18 07:51:32;;;;;;;2.72;2.42;;;;;;;;;;4959836;29;20195;-87
2023/08/18 07:54:02;;;;;;;4.05;2.40;;;;;;;;;;4959277;29;20202;-84
2023/08/18 07:56:31;;;;;;;2.20;2.08;;;;;;;;;;4958150;29;20211;-85
2023/08/18 07:59:04;;;;;;;2.22;2.03;;;;;;;;;;4957271;29;20211;-85
2023/08/18 08:01:36;;;;;;;2.30;2.20;;;;;;;;;;4958768;28;20810;-84
2023/08/18 08:06:56;;;;;;;3.20;2.95;;;;;;;;;;4970439;28;20714;-83
2023/08/18 08:09:24;;;;;;;2.47;2.33;;;;;;;;;;4975064;28;20263;-84
2023/08/18 08:12:10;;;;;;;;;;;;;;;;;;;;;
2023/08/18 08:14:43;;;;;;;2.40;2.20;;;;;;;;;;4968687;28;20207;-84
2023/08/18 08:17:14;;;;;;;2.22;2.13;;;;;;;;;;4971579;28;20198;-85
2023/08/18 08:19:46;;;;;;;5.93;3.10;;;;;;;;;;4972354;28;20244;-85
2023/08/18 08:22:21;;;;;;;2.03;1.92;;;;;;;;;;4972561;28;20238;-84
2023/08/18 08:25:01;;;;;;;5.13;1.98;;;;;;;;;;4961754;28;20234;-84
2023/08/18 08:27:35;;;;;;;2.60;2.05;;;;;;;;;;4963743;28;20334;-86
2023/08/18 08:30:05;;;;;;;2.25;2.13;;;;;;;;;;4952355;28;20253;-84
2023/08/18 08:32:36;;;;;;;2.35;2.05;;;;;;;;;;4967492;28;20229;-87
2023/08/18 08:35:16;;;;;;;3.72;2.05;;;;;;;;;;4950426;28;20222;-85
2023/08/18 08:38:06;;;;;;;2.28;2.10;;;;;;;;;;4953354;29;20248;-86
2023/08/18 08:40:36;;;;;;;5.95;2.20;;;;;;;;;;4951181;28;20242;-86
2023/08/18 08:43:10;;;;;;;3.40;2.20;;;;;;;;;;4957836;29;20334;-84
2023/08/18 08:45:48;;;;;;;2.05;1.95;;;;;;;;;;4955459;28;20790;-85
2023/08/18 08:48:19;;;;;;;1.88;1.67;;;;;;;;;;4953480;28;20702;-86
2023/08/18 08:50:55;;;;;;;4.82;1.90;;;;;;;;;;4953545;28;20234;-87
2023/08/18 08:53:29;;;;;;;1.80;1.70;;;;;;;;;;4954427;29;20288;-85
2023/08/18 08:55:56;;;;;;;1.67;1.67;;;;;;;;;;4942744;28;20254;-84
2023/08/18 08:58:24;;;;;;;2.38;1.50;;;;;;;;;;4953110;29;20762;-85
2023/08/18 09:00:53;;;;;;;1.88;1.77;;;;;;;;;;4951893;28;20266;-85
2023/08/18 09:03:22;;;;;;;1.92;1.83;;;;;;;;;;4965337;28;20539;-85
2023/08/18 09:05:52;;;;;;;1.63;1.63;;;;;;;;;;4971706;28;20345;-86
2023/08/18 09:08:33;;;;;;;1.65;1.58;;;;;;;;;;4994323;28;20673;-85
2023/08/18 09:11:02;;;;;;;1.70;1.60;;;;;;;;;;4990306;28;20291;-85
2023/08/18 09:13:30;;;;;;;2.05;1.95;;;;;;;;;;4994098;28;20233;-84
2023/08/18 09:16:00;;;;;;;1.75;1.75;;;;;;;;;;4992278;28;20233;-83
2023/08/18 09:18:29;;;;;;;2.70;1.95;;;;;;;;;;4991900;28;20240;-86
2023/08/18 09:21:00;;;;;;;1.80;1.70;;;;;;;;;;4985417;28;20249;-86
2023/08/18 09:23:28;;;;;;;1.42;1.42;;;;;;;;;;4995032;28;20251;-86
2023/08/18 09:25:57;;;;;;;1.40;1.30;;;;;;;;;;4989776;28;20235;-86
2023/08/18 09:28:32;;;;;;;1.95;1.58;;;;;;;;;;4994948;28;20300;-86
2023/08/18 09:30:59;;;;;;;1.48;1.38;;;;;;;;;;4994157;28;20334;-85
2023/08/18 09:33:30;;;;;;;10.07;1.40;;;;;;;;;;4993649;28;20242;-85
2023/08/18 09:38:56;;;;;;;1.80;1.70;;;;;;;;;;4991022;28;20226;-86
2023/08/18 09:41:23;;;;;;;1.75;1.70;;;;;;;;;;4989727;28;20225;-85
2023/08/18 09:43:55;;;;;;;1.63;1.63;;;;;;;;;;4991106;28;20328;-86
2023/08/18 09:46:24;;;;;;;2.88;1.35;;;;;;;;;;4993792;28;20228;-86
2023/08/18 09:48:52;;;;;;;1.60;1.50;;;;;;;;;;4993130;28;20732;-85
2023/08/18 09:51:24;;;;;;;1.33;1.33;;;;;;;;;;4993435;28;20260;-84
2023/08/18 09:53:57;;;;;;;1.67;1.58;;;;;;;;;;4991978;28;20232;-85
2023/08/18 09:56:26;;;;;;;1.55;1.55;;;;;;;;;;4991765;28;20229;-84
2023/08/18 09:59:05;;;;;;;1.80;1.70;;;;;;;;;;4992691;28;20229;-85
2023/08/18 10:01:38;;;;;;;1.75;1.65;;;;;;;;;;4994711;28;20675;-86
2023/08/18 10:04:06;;;;;;;2.08;1.80;;;;;;;;;;4979168;28;20320;-84
2023/08/18 10:06:36;;;;;;;1.23;1.23;;;;;;;;;;4992471;28;20221;-85
2023/08/18 10:09:04;;;;;;;1.48;1.40;;;;;;;;;;4991243;28;20252;-85
2023/08/18 10:11:33;;;;;;;1.45;1.45;;;;;;;;;;4993867;28;20280;-85
2023/08/18 10:14:00;;;;;;;1.60;1.60;;;;;;;;;;4990502;28;20327;-85
2023/08/18 10:16:30;;;;;;;1.73;1.63;;;;;;;;;;4992950;28;20228;-85
2023/08/18 10:18:58;;;;;;;1.42;1.42;;;;;;;;;;4989123;28;20409;-85
2023/08/18 10:21:27;;;;;;;3.85;1.85;;;;;;;;;;4993606;28;20233;-85
2023/08/18 10:23:59;;;;;;;1.58;1.50;;;;;;;;;;4992825;28;20268;-86
2023/08/18 10:26:30;;;;;;;1.90;1.80;;;;;;;;;;4992754;28;20255;-86
2023/08/18 10:31:58;;;;;;;3.03;1.35;;;;;;;;;;4994166;28;20226;-85
2023/08/18 10:34:34;;;;;;;1.52;1.42;;;;;;;;;;4989460;28;20345;-85
2023/08/18 10:37:04;;;;;;;2.38;1.75;;;;;;;;;;4995936;28;20254;-86
2023/08/18 10:39:37;;;;;;;1.48;1.48;;;;;;;;;;4994170;28;20225;-85
2023/08/18 10:42:07;;;;;;;2.47;1.80;;;;;;;;;;5011188;28;20248;-85
2023/08/18 10:44:37;;;;;;;4.72;1.70;;;;;;;;;;5011899;28;20228;-87
2023/08/18 10:47:29;;;;;;;2.03;1.92;;;;;;;;;;4994998;28;20221;-86
2023/08/18 10:49:57;;;;;;;5.18;2.30;;;;;;;;;;4989638;28;20256;-85
2023/08/18 10:52:29;;;;;;;1.60;1.50;;;;;;;;;;4992186;28;20281;-85
2023/08/18 10:54:59;;;;;;;1.58;1.55;;;;;;;;;;4985592;28;20230;-85
2023/08/18 10:57:28;;;;;;;1.85;1.83;;;;;;;;;;4990027;28;20248;-87
2023/08/18 11:00:12;;;;;;;1.90;1.80;;;;;;;;;;4991591;28;20269;-85
2023/08/18 11:02:40;;;;;;;1.98;1.88;;;;;;;;;;4992446;28;20802;-87
2023/08/18 11:05:11;;;;;;;2.17;1.92;;;;;;;;;;4988213;28;20312;-86
2023/08/18 11:07:42;;;;;;;3.50;1.75;;;;;;;;;;4992277;28;20229;-85
2023/08/18 11:10:19;;;;;;;2.30;2.20;;;;;;;;;;4992760;28;20259;-86
2023/08/18 11:12:52;;;;;;;1.92;1.83;;;;;;;;;;4993383;28;20363;-85
2023/08/18 11:15:23;;;;;;;2.15;2.00;;;;;;;;;;4996386;28;20237;-85
2023/08/18 11:17:53;;;;;;;1.48;1.48;;;;;;;;;;4997530;28;20312;-86
2023/08/18 11:20:23;;;;;;;1.90;1.80;;;;;;;;;;4989362;28;20241;-86
2023/08/18 11:22:57;;;;;;;2.03;1.92;;;;;;;;;;4997080;28;20239;-85
2023/08/18 11:25:27;;;;;;;1.80;1.80;;;;;;;;;;4995722;28;20371;-87
2023/08/18 11:27:58;;;;;;;2.05;1.98;;;;;;;;;;4999423;28;20221;-87
2023/08/18 11:30:34;;;;;;;2.75;2.00;;;;;;;;;;4996808;28;20291;-88
2023/08/18 11:33:02;;;;;;;4.32;2.08;;;;;;;;;;4997739;28;20730;-86
2023/08/18 11:35:34;;;;;;;3.50;1.88;;;;;;;;;;4993218;28;20249;-86
2023/08/18 11:38:04;;;;;;;1.77;1.77;;;;;;;;;;4994842;28;20223;-86
2023/08/18 11:40:47;;;;;;;2.55;2.17;;;;;;;;;;4991246;28;20263;-86
2023/08/18 11:43:42;;;;;;;1.83;1.83;;;;;;;;;;5001542;28;20229;-86
2023/08/18 11:46:20;;;;;;;4.30;1.95;;;;;;;;;;5034655;23;20332;-86
2023/08/18 11:48:48;;;;;;;2.10;2.00;;;;;;;;;;4998910;28;20239;-84
2023/08/18 11:59:34;;;;;;;1.95;1.85;;;;;;;;;;4578306;27;13491710;-83
2023/08/18 12:02:05;;;;;;;1.70;1.70;;;;;;;;;;5028282;28;20237;-84
2023/08/18 12:04:34;;;;;;;2.05;1.95;;;;;;;;;;5011652;28;20287;-83
2023/08/18 12:07:06;;;;;;;2.00;1.90;;;;;;;;;;5007280;28;20768;-83
2023/08/18 12:09:37;;;;;;;5.43;2.15;;;;;;;;;;5001337;28;20237;-83
2023/08/18 12:12:13;;;;;;;5.85;2.25;;;;;;;;;;4993702;28;20233;-85
2023/08/18 12:14:43;;;;;;;2.10;1.90;;;;;;;;;;5002175;28;20232;-84
2023/08/18 12:17:11;;;;;;;1.88;1.75;;;;;;;;;;4992197;28;20283;-84
2023/08/18 12:19:40;;;;;;;1.58;1.58;;;;;;;;;;4998747;28;20217;-83
2023/08/18 12:22:16;;;;;;;1.88;1.77;;;;;;;;;;4994242;28;20332;-84
2023/08/18 12:24:48;;;;;;;2.10;2.00;;;;;;;;;;5004319;28;20237;-85
2023/08/18 12:30:03;;;;;;;1.45;1.45;;;;;;;;;;5077536;22;20246;-86
2023/08/18 12:38:35;;;;;;;2.00;1.92;;;;;;;;;;5139674;22;20224;-85
2023/08/18 12:41:17;;;;;;;2.72;2.28;;;;;;;;;;5022192;28;20220;-85
2023/08/18 12:43:58;;;;;;;1.80;1.75;;;;;;;;;;5020231;28;20235;-84
2023/08/18 12:46:32;;;;;;;2.17;2.08;;;;;;;;;;5010290;28;20229;-84
2023/08/18 12:49:01;;;;;;;1.60;1.60;;;;;;;;;;5014527;28;20225;-85
2023/08/18 12:51:31;;;;;;;2.22;2.13;;;;;;;;;;5010200;28;20272;-84
2023/08/18 12:54:03;;;;;;;1.67;1.60;;;;;;;;;;5008007;28;20559;-84
2023/08/18 12:56:33;;;;;;;1.80;1.70;;;;;;;;;;5008786;28;20699;-85
2023/08/18 12:59:14;;;;;;;2.05;1.95;;;;;;;;;;5008628;28;20330;-83
2023/08/18 13:01:40;;;;;;;1.90;1.80;;;;;;;;;;5007459;28;20229;-84
2023/08/18 13:04:13;;;;;;;1.90;1.80;;;;;;;;;;5010434;28;20263;-84
2023/08/18 13:06:42;;;;;;;3.60;1.77;;;;;;;;;;5006881;28;20227;-84
2023/08/18 13:09:14;;;;;;;1.73;1.63;;;;;;;;;;5006103;28;20225;-84
2023/08/18 13:11:43;;;;;;;2.15;2.05;;;;;;;;;;5004339;28;20229;-85
2023/08/18 13:14:12;;;;;;;2.22;2.13;;;;;;;;;;4999424;28;20304;-85
2023/08/18 13:16:42;;;;;;;2.20;2.10;;;;;;;;;;4996647;28;20694;-84
2023/08/18 13:19:19;;;;;;;1.95;1.85;;;;;;;;;;4999770;28;20235;-83
2023/08/18 13:21:48;;;;;;;2.17;2.00;;;;;;;;;;4993288;28;20783;-84
2023/08/18 13:24:21;;;;;;;2.13;2.03;;;;;;;;;;4980679;28;20237;-84
2023/08/18 13:26:52;;;;;;;2.58;2.38;;;;;;;;;;4994687;28;20233;-85
2023/08/18 13:29:19;;;;;;;2.78;2.67;;;;;;;;;;4992383;28;20237;-84
2023/08/18 13:31:52;;;;;;;2.25;2.13;;;;;;;;;;4993235;28;20247;-83
2023/08/18 13:34:21;;;;;;;2.55;2.35;;;;;;;;;;4988519;28;20236;-84
2023/08/18 13:36:53;;;;;;;2.30;2.10;;;;;;;;;;4992749;28;20247;-86
2023/08/18 13:39:25;;;;;;;2.45;2.25;;;;;;;;;;4987220;28;20245;-85
2023/08/18 13:41:52;;;;;;;3.65;2.20;;;;;;;;;;4992465;28;20226;-86
2023/08/18 13:44:20;;;;;;;2.67;2.58;;;;;;;;;;4988688;28;20221;-85
2023/08/18 13:46:50;;;;;;;2.58;2.38;;;;;;;;;;4988465;28;20276;-84
2023/08/18 13:49:21;;;;;;;2.65;2.55;;;;;;;;;;4973319;28;20766;-84
2023/08/18 13:51:50;;;;;;;2.97;2.72;;;;;;;;;;4973771;28;20238;-84
2023/08/18 13:54:21;;;;;;;3.78;2.78;;;;;;;;;;4970350;28;20218;-85
2023/08/18 13:56:52;;;;;;;2.80;2.60;;;;;;;;;;4973101;28;20321;-85
2023/08/18 13:59:24;;;;;;;2.40;2.30;;;;;;;;;;4971625;28;20332;-85
2023/08/18 14:01:52;;;;;;;2.42;2.33;;;;;;;;;;4972752;28;20237;-85
2023/08/18 14:04:20;;;;;;;2.50;2.30;;;;;;;;;;4985642;28;20255;-85
2023/08/18 14:06:52;;;;;;;2.60;2.50;;;;;;;;;;4993045;28;20225;-85
2023/08/18 14:09:19;;;;;;;2.83;2.72;;;;;;;;;;4980285;28;20321;-84
2023/08/18 14:11:49;;;;;;;2.40;2.30;;;;;;;;;;4991941;28;20694;-85
2023/08/18 14:14:19;;;;;;;2.08;1.98;;;;;;;;;;4985612;28;20238;-85
2023/08/18 14:16:46;;;;;;;2.40;2.15;;;;;;;;;;4991265;28;20261;-84
2023/08/18 14:19:18;;;;;;;3.80;2.17;;;;;;;;;;4971610;28;20238;-86
2023/08/18 14:21:50;;;;;;;2.50;2.40;;;;;;;;;;4973156;28;20225;-84
2023/08/18 14:24:19;;;;;;;2.35;2.25;;;;;;;;;;4986835;28;20229;-87
2023/08/18 14:26:48;;;;;;;3.00;2.88;;;;;;;;;;4996562;28;20240;-86
2023/08/18 14:29:20;;;;;;;2.65;2.47;;;;;;;;;;4996863;28;20772;-85
2023/08/18 14:31:50;;;;;;;2.33;2.22;;;;;;;;;;4996849;28;20223;-84
2023/08/18 14:34:19;;;;;;;3.35;1.95;;;;;;;;;;5006142;28;20312;-85
2023/08/18 14:36:50;;;;;;;7.00;2.17;;;;;;;;;;5015135;28;20244;-86
2023/08/18 14:39:21;;;;;;;2.08;1.98;;;;;;;;;;4998694;28;20248;-87
2023/08/18 14:41:50;;;;;;;2.65;2.15;;;;;;;;;;5008012;28;20248;-85
2023/08/18 14:44:21;;;;;;;5.07;2.33;;;;;;;;;;5010337;28;20259;-86
2023/08/18 14:46:52;;;;;;;2.15;2.05;;;;;;;;;;5011787;28;20678;-84
2023/08/18 14:49:20;;;;;;;3.53;2.10;;;;;;;;;;5008747;28;20225;-85
2023/08/18 14:51:49;;;;;;;4.20;2.97;;;;;;;;;;5014865;28;20764;-87
2023/08/18 14:54:20;;;;;;;2.53;2.42;;;;;;;;;;5011419;28;20659;-85
2023/08/18 14:56:49;;;;;;;6.22;2.35;;;;;;;;;;5012639;28;20379;-85
2023/08/18 14:59:16;;;;;;;2.53;2.13;;;;;;;;;;5009679;28;20335;-85
2023/08/18 15:01:46;;;;;;;2.15;2.05;;;;;;;;;;5011201;28;20243;-86
2023/08/18 15:04:18;;;;;;;2.28;2.17;;;;;;;;;;4995822;28;20293;-86
2023/08/18 15:06:46;;;;;;;2.63;2.50;;;;;;;;;;4988928;28;20292;-86
2023/08/18 15:09:15;;;;;;;2.40;2.30;;;;;;;;;;4992050;28;20247;-85
2023/08/18 15:11:43;;;;;;;2.50;2.40;;;;;;;;;;4989880;28;20245;-83
2023/08/18 15:14:16;;;;;;;2.42;2.30;;;;;;;;;;4990443;28;20225;-84
2023/08/18 15:16:45;;;;;;;2.60;2.50;;;;;;;;;;4990403;28;20236;-87
2023/08/18 15:19:16;;;;;;;2.20;2.10;;;;;;;;;;4991459;28;20660;-86
2023/08/18 15:21:43;;;;;;;3.05;2.47;;;;;;;;;;4988893;28;20228;-86
2023/08/18 15:24:13;;;;;;;2.72;2.63;;;;;;;;;;4990577;28;20510;-86
2023/08/18 15:26:43;;;;;;;2.75;2.53;;;;;;;;;;4986046;28;20690;-86
2023/08/18 15:29:12;;;;;;;5.00;2.70;;;;;;;;;;4991617;28;20222;-83